Almont, Michigan
Current Conditions -  °F | °C
As of 1:13 AM on Thursday 29 Jan 2015 (Local Time) from KD95 Reporting Station
Overcast Overcast  
Wind Chill: 16°   Ceiling: 10000
Heat Index: 25°   Visibility: 10mi
Dew Point: 14°   Wind: 9mph
Humidity: 63%   Direction: 170°S
Pressure: 30.05"   Gusts: 16mph
Location:  42.92°N, 83.04°W
Report Text: KD95 290613Z AUTO 17008G14KT 10SM OVC100 M04/M10 A3005 RMK AO2 T10371098
Loading
Personal Weather Stations






























Interactive Weather Map New forecast layout! Learn more

10-Day Weather Forecast

Advertisements
Track Severe Weather on mobile